You are listening to:
YSSY Director (Both) - Sydney, New South Wales, Australia

YSSY 190030Z 04007KT 9999 SCT020 SCT130 20/16 Q1026 FM0100 04015KT 9999 -SHRA SCT025

If stream does not start automatically press the play button